Time;durP1;ratioP1;P1;durP2;ratioP2;P2;SDS_P1;SDS_P2;PMS_P1;PMS_P2;Temp;Humidity;BMP_temperature;BMP_pressure;BME280_temperature;BME280_humidity;BME280_pressure;Samples;Min_cycle;Max_cycle;Signal;HPM_P1;HPM_P2
2022/02/01 00:03:30;;;;;;;111.40;38.60;;;;;;;0.96;70.76;96700.59;5035498;28;20559;-70
2022/02/01 00:06:13;;;;;;;114.20;38.35;;;;;;;0.91;70.61;96687.22;5032259;28;20517;-69
2022/02/01 00:08:59;;;;;;;120.85;38.17;;;;;;;0.95;70.61;96690.94;5021597;28;20446;-70
2022/02/01 00:19:44;;;;;;;108.68;36.40;;;;;;;0.91;70.65;96693.38;5028469;28;20228;-68
2022/02/01 00:36:21;;;;;;;121.30;39.42;;;;;;;0.85;71.06;96702.63;5024270;28;20140;-71
2022/02/01 00:38:56;;;;;;;115.20;39.50;;;;;;;0.88;70.98;96699.34;5019742;28;20057;-70
2022/02/01 00:41:28;;;;;;;126.70;40.90;;;;;;;0.85;71.03;96686.47;5034552;28;20045;-72
2022/02/01 00:43:54;;;;;;;114.13;38.90;;;;;;;0.88;70.90;96696.66;5021885;28;20558;-72
2022/02/01 00:46:20;;;;;;;122.68;38.20;;;;;;;0.84;71.13;96701.00;5030343;28;20191;-72
2022/02/01 00:48:48;;;;;;;111.20;38.13;;;;;;;0.87;71.08;96688.88;5017566;28;20076;-73
2022/02/01 00:51:14;;;;;;;;;;;;;;;0.89;70.90;96700.16;5023284;28;20061;-73
2022/02/01 00:53:41;;;;;;;118.05;38.83;;;;;;;0.80;70.93;96691.94;5024177;28;20403;-72
2022/02/01 00:56:09;;;;;;;;;;;;;;;0.92;70.91;96707.66;5033574;28;20068;-72
2022/02/01 00:58:35;;;;;;;125.35;39.15;;;;;;;0.94;70.58;96702.78;5015650;28;19926;-72
2022/02/01 01:01:02;;;;;;;128.55;39.78;;;;;;;0.94;70.80;96711.66;5013213;28;20050;-71
2022/02/01 01:03:28;;;;;;;127.03;41.50;;;;;;;0.93;70.77;96704.66;5015616;28;20046;-72
2022/02/01 01:05:55;;;;;;;140.77;40.70;;;;;;;0.91;70.73;96697.97;5028322;28;20056;-70
2022/02/01 01:08:23;;;;;;;129.23;40.28;;;;;;;0.92;70.89;96697.69;5024477;28;20149;-70
2022/02/01 01:10:49;;;;;;;135.30;38.47;;;;;;;0.93;70.97;96699.28;5022132;28;20390;-68
2022/02/01 01:15:49;;;;;;;134.38;40.30;;;;;;;0.88;70.97;96696.66;5014417;28;20077;-73
2022/02/01 01:54:00;;;;;;;95.95;33.42;;;;;;;0.52;71.83;96707.81;5018315;28;20061;-74
2022/02/01 01:56:29;;;;;;;103.72;33.72;;;;;;;0.49;71.72;96708.41;5014281;28;20050;-74
2022/02/01 01:58:55;;;;;;;95.40;33.42;;;;;;;0.45;71.82;96708.16;4996509;28;20164;-74
2022/02/01 02:01:22;;;;;;;102.85;34.92;;;;;;;0.53;71.73;96718.28;5017332;28;20042;-75
2022/02/01 02:03:49;;;;;;;112.00;34.65;;;;;;;0.63;71.54;96717.41;5029491;28;20473;-74
2022/02/01 02:06:17;;;;;;;107.65;34.97;;;;;;;0.64;71.20;96726.25;5017377;28;20041;-74
2022/02/01 02:08:47;;;;;;;101.60;34.67;;;;;;;0.62;71.19;96726.53;5017682;28;20050;-74
2022/02/01 02:11:19;;;;;;;97.05;33.95;;;;;;;0.56;71.45;96730.34;5025879;28;20480;-69
2022/02/01 02:16:38;;;;;;;97.97;32.88;;;;;;;0.51;71.76;96741.97;5014596;28;20046;-69
2022/02/01 02:19:05;;;;;;;103.05;34.95;;;;;;;0.41;71.78;96742.88;5019598;28;20053;-68
2022/02/01 02:21:33;;;;;;;110.55;37.65;;;;;;;0.41;72.04;96734.00;5020454;28;20181;-69
2022/02/01 02:23:59;;;;;;;114.03;36.53;;;;;;;0.56;71.58;96741.13;5019281;28;20050;-70
2022/02/01 02:26:26;;;;;;;113.93;36.35;;;;;;;0.66;71.20;96732.13;4995564;28;20387;-69
2022/02/01 02:28:55;;;;;;;116.57;37.38;;;;;;;0.56;71.01;96714.22;5011854;28;20479;-70
2022/02/01 02:31:22;;;;;;;114.60;36.55;;;;;;;0.75;70.84;96741.19;5020053;28;20034;-70
2022/02/01 02:33:49;;;;;;;113.60;35.90;;;;;;;0.83;70.69;96747.84;5018844;28;20053;-70
2022/02/01 02:36:21;;;;;;;115.40;36.08;;;;;;;0.85;70.40;96733.00;5019485;28;20049;-70
2022/02/01 02:38:59;;;;;;;112.57;36.72;;;;;;;0.76;70.68;96739.28;5012874;28;20042;-70
2022/02/01 02:41:35;;;;;;;119.68;37.30;;;;;;;0.73;70.82;96738.00;5012697;28;20052;-69
2022/02/01 02:46:53;;;;;;;117.68;36.67;;;;;;;0.67;71.03;96742.63;5022906;28;20422;-75
2022/02/01 02:49:23;;;;;;;125.22;36.13;;;;;;;0.67;70.94;96739.94;5023766;28;20056;-75
2022/02/01 02:51:50;;;;;;;109.00;35.05;;;;;;;0.76;70.61;96750.88;5016449;28;20053;-75
2022/02/01 02:54:22;;;;;;;110.38;36.35;;;;;;;0.77;70.58;96752.47;5025431;28;20053;-75
2022/02/01 02:56:49;;;;;;;113.85;37.15;;;;;;;0.91;70.08;96754.47;5013011;28;20085;-75
2022/02/01 02:59:16;;;;;;;114.60;36.95;;;;;;;0.84;70.13;96758.28;5017412;28;20045;-74
2022/02/01 03:01:47;;;;;;;114.43;37.95;;;;;;;0.70;70.31;96760.06;5022816;28;20053;-74
2022/02/01 03:04:15;;;;;;;95.57;33.80;;;;;;;0.78;70.44;96747.88;5014293;28;20100;-74
2022/02/01 03:06:44;;;;;;;;;;;;;;;0.76;70.03;96747.34;5031306;28;20141;-74
2022/02/01 03:09:10;;;;;;;99.07;33.42;;;;;;;0.85;69.87;96761.81;5014093;28;19936;-74
2022/02/01 03:11:39;;;;;;;111.68;35.42;;;;;;;0.82;69.58;96762.38;5011825;28;20057;-74
2022/02/01 03:14:19;;;;;;;110.70;33.50;;;;;;;0.77;69.61;96763.22;5001933;28;20061;-74
2022/02/01 03:21:56;;;;;;;87.00;30.42;;;;;;;0.87;69.18;96765.00;5018777;28;20053;-74
2022/02/01 03:24:22;;;;;;;86.43;31.05;;;;;;;0.85;69.12;96767.19;5023166;28;20049;-75
2022/02/01 03:26:50;;;;;;;95.70;32.03;;;;;;;0.94;68.78;96770.03;5043153;28;20046;-74
2022/02/01 03:29:16;;;;;;;96.88;32.30;;;;;;;0.92;68.57;96770.31;5006014;28;20054;-74
2022/02/01 03:31:42;;;;;;;87.07;31.48;;;;;;;0.89;68.36;96772.81;5018921;28;20104;-74
2022/02/01 03:34:08;;;;;;;94.15;31.95;;;;;;;0.89;68.45;96783.56;5016250;28;20050;-74
2022/02/01 03:36:34;;;;;;;91.43;32.53;;;;;;;0.88;68.32;96776.59;5011740;28;20048;-74
2022/02/01 03:39:01;;;;;;;88.10;29.73;;;;;;;0.93;68.01;96784.59;5016910;28;20438;-74
2022/02/01 03:41:27;;;;;;;95.00;30.95;;;;;;;0.86;68.08;96798.38;5011270;28;20077;-74
2022/02/01 03:43:55;;;;;;;95.57;30.63;;;;;;;0.89;67.76;96795.09;5022797;28;20387;-75
2022/02/01 03:46:21;;;;;;;87.90;30.45;;;;;;;0.79;68.24;96795.22;5011288;28;20046;-74
2022/02/01 03:48:47;;;;;;;100.35;32.42;;;;;;;0.85;68.04;96810.22;5018284;28;20046;-71
2022/02/01 03:51:14;;;;;;;89.57;29.85;;;;;;;0.75;68.04;96780.72;5014443;28;20056;-71
2022/02/01 03:53:40;;;;;;;85.70;31.33;;;;;;;0.82;67.60;96795.44;5014558;28;20049;-74
2022/02/01 03:56:06;;;;;;;84.18;31.02;;;;;;;0.79;67.66;96806.00;5011995;28;20046;-75
2022/02/01 03:58:33;;;;;;;100.72;29.58;;;;;;;0.85;67.44;96811.00;5022546;28;20042;-75
2022/02/01 04:01:01;;;;;;;75.15;27.60;;;;;;;0.89;67.51;96823.91;5010522;28;20787;-75
2022/02/01 04:03:27;;;;;;;81.55;28.58;;;;;;;0.85;67.34;96813.69;5012225;28;20328;-74
2022/02/01 04:05:54;;;;;;;84.75;27.27;;;;;;;0.88;66.97;96825.78;5026295;28;20046;-73
2022/02/01 04:08:22;;;;;;;77.90;28.80;;;;;;;0.83;66.86;96831.22;5030585;28;20046;-74
2022/02/01 04:10:50;;;;;;;78.50;27.90;;;;;;;0.82;66.99;96830.41;5012096;28;20056;-74
2022/02/01 04:13:16;;;;;;;74.15;28.20;;;;;;;0.65;67.00;96816.59;5011690;28;20046;-73
2022/02/01 04:15:43;;;;;;;86.13;28.65;;;;;;;0.82;67.05;96833.09;5018659;28;20103;-74
2022/02/01 04:18:11;;;;;;;77.45;26.70;;;;;;;0.84;66.77;96832.84;5022550;28;20418;-74
2022/02/01 04:20:38;;;;;;;75.95;28.25;;;;;;;0.80;66.76;96835.28;4999284;28;20057;-73
2022/02/01 04:23:04;;;;;;;70.22;26.80;;;;;;;0.73;66.79;96839.38;5023962;28;20052;-73
2022/02/01 04:25:31;;;;;;;72.65;26.95;;;;;;;0.78;66.95;96842.03;5026078;28;20418;-73
2022/02/01 04:27:57;;;;;;;73.22;26.17;;;;;;;0.81;66.47;96828.81;5011666;28;20046;-73
2022/02/01 04:30:24;;;;;;;75.05;27.48;;;;;;;0.79;66.35;96847.13;5011903;28;20045;-73
2022/02/01 04:32:52;;;;;;;71.80;26.90;;;;;;;0.73;66.22;96840.19;5027511;28;20057;-73
2022/02/01 04:35:21;;;;;;;76.32;28.52;;;;;;;0.73;66.35;96847.47;5024664;28;20049;-72
2022/02/01 04:37:48;;;;;;;77.78;30.02;;;;;;;0.70;66.19;96843.44;5025710;28;20061;-73
2022/02/01 04:40:16;;;;;;;78.47;28.95;;;;;;;0.66;66.19;96839.72;5022347;28;20149;-72
2022/02/01 04:42:43;;;;;;;71.28;26.80;;;;;;;0.62;65.96;96836.00;5011534;28;20052;-74
2022/02/01 04:45:12;;;;;;;81.38;28.58;;;;;;;0.60;65.89;96848.91;5010861;28;20100;-72
2022/02/01 04:47:39;;;;;;;77.00;28.92;;;;;;;0.58;65.69;96848.41;5010798;28;20042;-70
2022/02/01 04:50:12;;;;;;;74.25;26.95;;;;;;;0.55;66.01;96864.03;5021881;28;20076;-69
2022/02/01 04:52:41;;;;;;;72.53;27.20;;;;;;;0.58;65.61;96861.84;5033580;28;20148;-70
2022/02/01 04:55:08;;;;;;;69.85;26.77;;;;;;;0.60;65.58;96868.53;5014001;28;20055;-70
2022/02/01 04:57:36;;;;;;;72.45;25.55;;;;;;;0.63;65.42;96873.38;5017372;28;20565;-69
2022/02/01 05:00:03;;;;;;;62.80;23.75;;;;;;;0.69;65.29;96880.31;5022872;28;20559;-70
2022/02/01 05:02:33;;;;;;;59.35;23.55;;;;;;;0.64;65.31;96885.72;5032325;28;20050;-70
2022/02/01 05:04:59;;;;;;;65.25;22.33;;;;;;;0.64;65.40;96888.44;5011341;28;20050;-70
2022/02/01 05:07:25;;;;;;;65.43;23.63;;;;;;;0.63;65.34;96902.13;5019457;28;20041;-71
2022/02/01 05:09:57;;;;;;;66.95;21.70;;;;;;;0.56;65.64;96900.59;5025968;28;20087;-70
2022/02/01 05:12:24;;;;;;;70.88;24.17;;;;;;;0.52;65.70;96904.91;5012728;28;20053;-70
2022/02/01 05:14:50;;;;;;;74.13;23.67;;;;;;;0.44;65.63;96907.38;5023732;28;20394;-69
2022/02/01 05:17:18;;;;;;;80.18;25.90;;;;;;;0.46;65.87;96913.28;5024504;28;20081;-70
2022/02/01 05:19:54;;;;;;;80.00;25.88;;;;;;;0.56;65.53;96910.53;5030406;28;20080;-70
2022/02/01 05:22:21;;;;;;;62.00;24.58;;;;;;;0.42;65.60;96910.34;5022293;28;20526;-71
2022/02/01 05:24:49;;;;;;;62.05;23.38;;;;;;;0.44;65.73;96916.25;5029872;28;20555;-69
2022/02/01 05:27:17;;;;;;;81.78;25.63;;;;;;;0.40;65.74;96915.22;5022526;28;20041;-69
2022/02/01 05:29:43;;;;;;;57.58;23.27;;;;;;;0.42;65.61;96911.16;5025856;28;20111;-68
2022/02/01 05:32:25;;;;;;;62.13;22.95;;;;;;;0.38;65.56;96920.88;5013040;28;20056;-70
2022/02/01 05:34:53;;;;;;;61.55;22.77;;;;;;;0.39;65.69;96925.16;5023183;28;20149;-69
2022/02/01 05:37:19;;;;;;;64.15;22.88;;;;;;;0.39;65.80;96929.72;5013750;28;20630;-69
2022/02/01 05:39:46;;;;;;;62.05;22.98;;;;;;;0.35;65.69;96932.19;5015139;28;20049;-70
2022/02/01 05:42:17;;;;;;;66.83;24.97;;;;;;;0.37;65.60;96943.44;5013826;28;20045;-68
2022/02/01 05:44:45;;;;;;;60.17;23.50;;;;;;;0.45;65.57;96935.88;5014293;28;20046;-68
2022/02/01 05:47:13;;;;;;;57.40;21.92;;;;;;;0.32;65.32;96948.06;5032319;28;20050;-69
2022/02/01 05:49:39;;;;;;;68.05;23.70;;;;;;;0.25;65.49;96940.28;5032222;28;20103;-73
2022/02/01 05:52:06;;;;;;;58.95;21.52;;;;;;;0.36;65.71;96943.72;5029182;28;20152;-72
2022/02/01 05:54:32;;;;;;;70.97;22.73;;;;;;;0.40;65.54;96955.53;5029169;28;20421;-73
2022/02/01 05:56:58;;;;;;;66.38;23.73;;;;;;;0.31;65.30;96958.00;5011085;28;20300;-73
2022/02/01 05:59:25;;;;;;;58.15;21.63;;;;;;;0.28;65.47;96948.63;5024229;28;20553;-73
2022/02/01 06:01:53;;;;;;;64.03;22.83;;;;;;;0.24;65.50;96957.50;5006937;28;20509;-72
2022/02/01 06:04:19;;;;;;;57.00;20.88;;;;;;;0.27;65.72;96956.94;5028631;28;20073;-73
2022/02/01 06:06:45;;;;;;;61.50;20.67;;;;;;;0.33;65.54;96963.91;5026067;28;20116;-73
2022/02/01 06:09:12;;;;;;;57.95;22.05;;;;;;;0.06;65.54;96937.44;5028619;28;20425;-73
2022/02/01 06:11:38;;;;;;;58.40;20.50;;;;;;;0.31;65.58;96966.06;5019111;28;20329;-74
2022/02/01 06:14:04;;;;;;;57.20;22.17;;;;;;;0.26;65.50;96966.91;5028488;28;20515;-72
2022/02/01 06:16:31;;;;;;;60.40;21.67;;;;;;;0.36;65.40;96978.66;5023422;28;20042;-73
2022/02/01 06:18:58;;;;;;;59.97;22.52;;;;;;;0.33;65.32;96976.53;5027614;28;20413;-72
2022/02/01 06:21:25;;;;;;;61.60;22.90;;;;;;;0.42;65.04;96977.56;5023955;28;20037;-71
2022/02/01 06:23:51;;;;;;;58.58;21.92;;;;;;;0.41;64.98;96981.34;5005211;28;20057;-72
2022/02/01 06:26:17;;;;;;;66.57;24.15;;;;;;;0.57;64.47;96984.72;5014593;28;20469;-73
2022/02/01 06:28:43;;;;;;;66.90;22.73;;;;;;;0.46;64.42;96978.63;5020275;28;20045;-72
2022/02/01 06:31:08;;;;;;;60.22;23.05;;;;;;;0.47;64.68;96993.66;5022269;28;20462;-71
2022/02/01 06:33:35;;;;;;;63.58;21.65;;;;;;;0.43;64.83;96998.00;5019565;28;20107;-71
2022/02/01 06:36:02;;;;;;;61.35;21.55;;;;;;;0.45;64.75;96998.53;5013270;28;20050;-72
2022/02/01 06:38:28;;;;;;;59.47;21.42;;;;;;;0.42;64.86;97007.16;5013101;28;20077;-73
2022/02/01 06:40:55;;;;;;;63.42;23.65;;;;;;;0.30;65.00;97001.28;5017348;28;20191;-71
2022/02/01 06:43:21;;;;;;;63.67;22.77;;;;;;;0.12;65.81;97025.81;5027965;28;20120;-73
2022/02/01 06:45:47;;;;;;;73.13;24.92;;;;;;;0.14;65.97;97026.34;5012678;28;20045;-72
2022/02/01 06:48:13;;;;;;;74.95;25.70;;;;;;;0.02;66.28;97014.28;5015298;28;20089;-71
2022/02/01 06:50:39;;;;;;;75.22;25.60;;;;;;;-0.10;66.86;97025.34;5013043;28;20056;-76
2022/02/01 06:53:07;;;;;;;67.00;24.60;;;;;;;-0.10;66.73;97015.41;5019200;28;20076;-75
2022/02/01 06:58:04;;;;;;;65.82;24.10;;;;;;;-0.09;67.25;97033.13;5015628;28;19926;-69
2022/02/01 07:00:31;;;;;;;76.60;24.55;;;;;;;-0.23;67.88;97032.13;5020282;28;20073;-70
2022/02/01 07:02:57;;;;;;;74.18;25.92;;;;;;;-0.08;67.60;97026.69;5024092;28;20402;-68
2022/02/01 07:05:23;;;;;;;80.07;26.90;;;;;;;-0.07;67.76;97041.75;5026079;28;20037;-67
2022/02/01 07:07:50;;;;;;;77.25;26.08;;;;;;;0.13;67.13;97030.09;5034891;28;20069;-68
2022/02/01 07:10:18;;;;;;;81.57;26.23;;;;;;;0.12;67.17;97041.94;5023019;28;20456;-66
2022/02/01 07:12:45;;;;;;;76.35;25.48;;;;;;;0.01;67.53;97042.25;5019837;28;20422;-67
2022/02/01 07:15:12;;;;;;;81.28;24.45;;;;;;;0.05;67.51;97057.56;5017143;28;20111;-69
2022/02/01 07:17:46;;;;;;;72.75;26.67;;;;;;;-0.01;67.75;97047.88;5032593;28;20104;-68
2022/02/01 07:20:12;;;;;;;65.93;23.75;;;;;;;-0.18;68.43;97069.69;5024320;28;20056;-69
2022/02/01 07:22:41;;;;;;;85.97;26.23;;;;;;;-0.27;68.52;97049.81;5018487;28;20057;-69
2022/02/01 07:25:26;;;;;;;79.13;25.40;;;;;;;-0.03;67.92;97060.78;5020482;28;20049;-70
2022/02/01 07:27:54;;;;;;;76.13;25.58;;;;;;;-0.02;68.16;97054.34;5021425;28;20041;-69
2022/02/01 07:30:24;;;;;;;;;;;;;;;0.10;67.87;97054.84;5039936;28;20053;-70
2022/02/01 07:32:51;;;;;;;71.68;23.10;;;;;;;0.13;67.44;97061.56;5012397;28;20022;-69
2022/02/01 07:35:19;;;;;;;72.18;23.98;;;;;;;-0.16;68.58;97071.03;5012721;28;20049;-70
2022/02/01 07:37:45;;;;;;;74.15;22.77;;;;;;;-0.07;68.37;97049.81;5018206;28;20053;-70
2022/02/01 07:40:12;;;;;;;78.05;25.08;;;;;;;-0.01;68.28;97066.69;5020080;28;20049;-69
2022/02/01 07:42:38;;;;;;;80.43;26.15;;;;;;;0.06;67.94;97063.72;5035073;28;20042;-71
2022/02/01 07:45:09;;;;;;;84.38;25.55;;;;;;;0.05;68.27;97072.84;5026070;28;20054;-70
2022/02/01 07:47:35;;;;;;;73.47;25.23;;;;;;;0.24;67.95;97071.19;5021489;28;20096;-70
2022/02/01 07:50:02;;;;;;;82.75;26.52;;;;;;;0.35;67.58;97073.84;5016352;28;20037;-70
2022/02/01 07:52:29;;;;;;;86.60;26.63;;;;;;;0.39;67.66;97069.50;5015432;28;20140;-70
2022/02/01 07:54:55;;;;;;;83.78;25.17;;;;;;;0.36;67.83;97067.38;5018809;28;20056;-69
2022/02/01 07:57:21;;;;;;;86.82;25.63;;;;;;;0.48;67.61;97067.88;5026754;28;20045;-69
2022/02/01 07:59:47;;;;;;;89.57;25.65;;;;;;;0.59;67.30;97079.38;5013935;28;20049;-67
2022/02/01 08:02:20;;;;;;;88.18;27.83;;;;;;;0.55;67.18;97057.63;5013960;28;20050;-71
2022/02/01 08:04:47;;;;;;;84.80;26.35;;;;;;;0.69;66.86;97076.66;5023316;28;20078;-68
2022/02/01 08:07:14;;;;;;;83.90;25.73;;;;;;;0.78;66.59;97084.13;5015036;28;20046;-68
2022/02/01 08:09:44;;;;;;;80.00;26.40;;;;;;;0.80;66.81;97093.53;5015986;28;20045;-67
2022/02/01 08:20:24;;;;;;;85.03;26.45;;;;;;;0.55;66.95;97106.03;5027784;28;20054;-74
2022/02/01 08:23:11;;;;;;;84.05;25.63;;;;;;;0.31;67.72;97107.72;5017514;28;20112;-76
2022/02/01 08:25:37;;;;;;;79.65;24.25;;;;;;;0.49;66.94;97106.34;5016840;28;20053;-76
2022/02/01 08:28:04;;;;;;;69.40;23.40;;;;;;;0.36;67.39;97110.38;5026383;28;20045;-73
2022/02/01 08:30:31;;;;;;;76.45;23.73;;;;;;;0.36;67.38;97100.47;5019455;28;20054;-74
2022/02/01 08:32:58;;;;;;;81.63;26.60;;;;;;;0.28;67.69;97109.88;5034913;28;20077;-73
2022/02/01 08:35:25;;;;;;;74.15;24.10;;;;;;;0.48;67.25;97102.03;5016599;28;20050;-73
2022/02/01 08:37:51;;;;;;;65.75;23.15;;;;;;;0.52;66.94;97111.16;5029979;28;20049;-73
2022/02/01 08:40:19;;;;;;;66.10;23.13;;;;;;;0.56;66.99;97110.34;5031568;28;20073;-73
2022/02/01 08:42:46;;;;;;;65.65;21.10;;;;;;;0.53;67.05;97104.69;5014939;28;20434;-73
2022/02/01 08:45:14;;;;;;;75.60;26.27;;;;;;;0.46;67.25;97114.91;5015006;28;20049;-73
2022/02/01 08:47:40;;;;;;;77.47;25.85;;;;;;;0.55;67.19;97106.03;5018840;28;20100;-73
2022/02/01 08:50:09;;;;;;;65.15;22.35;;;;;;;0.57;67.21;97097.69;5014343;28;20049;-73
2022/02/01 08:52:45;;;;;;;67.65;24.15;;;;;;;0.34;67.53;97101.81;4996817;28;20080;-73
2022/02/01 08:55:18;;;;;;;70.95;23.00;;;;;;;0.55;67.47;97099.84;5026309;28;20048;-74
2022/02/01 08:57:45;;;;;;;69.22;23.20;;;;;;;0.68;66.85;97095.75;5013597;28;20050;-74
2022/02/01 09:00:15;;;;;;;69.80;22.95;;;;;;;0.61;66.84;97079.13;5027283;28;20053;-73
2022/02/01 09:02:42;;;;;;;72.88;25.25;;;;;;;0.66;66.67;97093.34;5033897;28;20064;-73
2022/02/01 09:05:10;;;;;;;70.00;22.67;;;;;;;0.53;66.78;97083.19;5010862;28;20052;-74
2022/02/01 09:07:36;;;;;;;;;;;;;;;0.55;67.18;97107.91;5015981;28;20148;-73
2022/02/01 09:10:02;;;;;;;63.55;21.40;;;;;;;0.50;67.32;97106.03;5014298;28;20300;-73
2022/02/01 09:12:29;;;;;;;60.70;21.80;;;;;;;0.34;68.16;97110.69;5006890;28;20049;-73
2022/02/01 09:14:55;;;;;;;69.57;22.52;;;;;;;0.55;67.44;97108.72;5024833;28;20050;-73
2022/02/01 09:17:22;;;;;;;62.53;20.10;;;;;;;0.27;68.19;97107.47;4996746;28;20049;-74
2022/02/01 09:19:48;;;;;;;58.63;21.35;;;;;;;0.47;67.85;97100.41;5031620;28;20480;-75
2022/02/01 09:22:15;;;;;;;60.40;21.15;;;;;;;0.53;67.56;97108.16;5012771;28;20055;-75
2022/02/01 09:24:43;;;;;;;62.00;20.17;;;;;;;0.76;67.20;97110.50;5021099;28;20672;-74
2022/02/01 09:27:10;;;;;;;60.38;21.95;;;;;;;0.59;67.61;97108.16;5012387;28;20053;-74
2022/02/01 09:29:36;;;;;;;62.13;21.58;;;;;;;0.49;67.64;97109.03;5025728;28;20532;-74
2022/02/01 09:32:04;;;;;;;57.55;21.25;;;;;;;0.50;67.79;97105.25;5021199;28;20057;-74
2022/02/01 09:34:31;;;;;;;59.10;19.52;;;;;;;0.50;67.79;97122.16;5011722;28;20053;-74
2022/02/01 09:36:58;;;;;;;57.00;19.30;;;;;;;0.59;67.54;97116.25;5026652;28;20081;-75
2022/02/01 09:39:27;;;;;;;48.13;18.73;;;;;;;0.54;67.50;97109.78;5014138;28;20084;-74
2022/02/01 09:41:53;;;;;;;55.58;19.58;;;;;;;0.55;67.44;97119.50;5021139;28;20132;-74
2022/02/01 09:44:20;;;;;;;59.42;18.95;;;;;;;0.47;67.51;97121.91;5023594;28;20140;-73
2022/02/01 09:46:49;;;;;;;58.83;20.70;;;;;;;0.07;68.57;97141.38;5017575;28;20049;-74
2022/02/01 09:49:17;;;;;;;57.63;19.02;;;;;;;0.07;68.70;97117.19;5014072;28;20108;-73
2022/02/01 09:51:43;;;;;;;45.45;17.67;;;;;;;0.24;68.49;97140.28;5014406;28;20053;-74
2022/02/01 09:54:09;;;;;;;53.50;18.27;;;;;;;0.22;68.72;97129.00;5022358;28;20046;-74
2022/02/01 09:56:36;;;;;;;60.72;18.77;;;;;;;0.42;68.04;97128.13;5024233;28;20045;-75
2022/02/01 09:59:13;;;;;;;47.88;18.33;;;;;;;0.51;67.67;97134.53;5023046;28;20057;-75
2022/02/01 10:01:44;;;;;;;51.58;18.58;;;;;;;0.33;68.00;97129.75;5030524;28;20049;-73
2022/02/01 10:04:11;;;;;;;58.45;20.25;;;;;;;0.24;68.40;97133.03;5024391;28;20049;-74
2022/02/01 10:06:39;;;;;;;51.63;18.23;;;;;;;0.34;68.26;97116.06;5022435;28;20115;-73
2022/02/01 10:09:07;;;;;;;47.33;18.10;;;;;;;0.27;68.04;97089.47;5026224;28;20042;-74
2022/02/01 10:11:40;;;;;;;44.58;17.75;;;;;;;0.39;67.95;97112.53;5029234;28;20045;-74
2022/02/01 10:14:09;;;;;;;51.47;18.60;;;;;;;0.33;68.18;97127.88;5029153;28;20131;-74
2022/02/01 10:16:42;;;;;;;47.45;17.55;;;;;;;0.34;67.75;97118.75;5028870;28;20141;-73
2022/02/01 10:19:09;;;;;;;46.30;17.13;;;;;;;0.37;68.00;97120.88;5025730;28;20052;-74
2022/02/01 10:21:47;;;;;;;47.22;17.25;;;;;;;0.56;67.50;97110.34;5015166;28;20127;-73
2022/02/01 10:24:13;;;;;;;45.30;16.27;;;;;;;0.67;67.29;97121.84;5018259;28;20069;-73
2022/02/01 10:26:40;;;;;;;44.00;17.08;;;;;;;0.68;67.08;97136.91;5031264;28;20103;-73
2022/02/01 10:29:20;;;;;;;42.67;17.15;;;;;;;0.64;66.95;97133.16;5022786;28;20353;-74
2022/02/01 10:31:58;;;;;;;46.70;17.27;;;;;;;0.75;66.69;97119.66;5030137;28;20068;-74
2022/02/01 10:37:19;;;;;;;51.97;17.67;;;;;;;0.67;67.03;97127.22;5012408;28;20042;-74
2022/02/01 10:39:48;;;;;;;43.50;16.58;;;;;;;0.74;67.02;97131.50;5016706;28;20054;-74
2022/02/01 10:42:16;;;;;;;48.42;17.95;;;;;;;0.73;67.06;97125.31;5012953;28;20772;-75
2022/02/01 10:44:45;;;;;;;49.20;17.42;;;;;;;0.86;66.76;97115.84;5002238;28;20064;-74
2022/02/01 10:47:13;;;;;;;48.78;17.15;;;;;;;0.72;67.08;97125.59;5024264;28;20056;-75
2022/02/01 10:49:39;;;;;;;;;;;;;;;0.88;67.00;97121.75;5018541;28;20046;-75
2022/02/01 10:52:07;;;;;;;38.88;15.40;;;;;;;0.95;66.69;97119.56;5021531;28;19931;-69
2022/02/01 10:54:35;;;;;;;38.20;16.33;;;;;;;0.99;66.59;97122.47;5022213;28;20045;-68
2022/02/01 10:57:03;;;;;;;42.10;15.43;;;;;;;0.97;66.88;97132.72;5014217;28;20074;-69
2022/02/01 10:59:30;;;;;;;47.30;15.63;;;;;;;0.97;67.04;97135.41;5011747;28;20058;-68
2022/02/01 11:01:59;;;;;;;41.10;15.93;;;;;;;0.99;66.78;97144.84;5012874;28;20058;-67
2022/02/01 11:04:28;;;;;;;46.78;17.48;;;;;;;0.84;67.08;97143.00;5012911;28;20127;-69
2022/02/01 11:06:55;;;;;;;39.45;15.40;;;;;;;0.77;67.27;97155.97;5012135;28;20049;-69
2022/02/01 11:09:23;;;;;;;37.80;14.57;;;;;;;0.59;67.88;97149.31;5031102;28;20037;-69
2022/02/01 11:11:51;;;;;;;34.88;14.23;;;;;;;0.58;67.79;97155.75;5016814;28;20511;-69
2022/02/01 11:14:22;;;;;;;34.50;13.35;;;;;;;0.62;67.70;97138.00;5015454;28;20049;-70
2022/02/01 11:17:01;;;;;;;33.70;13.23;;;;;;;0.45;68.28;97159.84;5023658;28;20410;-70
2022/02/01 11:19:27;;;;;;;38.88;12.43;;;;;;;0.48;68.13;97147.75;5043309;28;20068;-70
2022/02/01 11:21:55;;;;;;;27.35;12.05;;;;;;;0.56;67.47;97164.13;5023335;28;20503;-69
2022/02/01 11:24:31;;;;;;;31.70;12.00;;;;;;;0.48;67.52;97151.22;5026342;28;20119;-69
2022/02/01 11:27:03;;;;;;;29.83;11.70;;;;;;;0.53;67.24;97150.41;5029378;28;20046;-70
2022/02/01 11:29:39;;;;;;;23.85;10.18;;;;;;;0.56;66.85;97164.13;5020737;28;20069;-70
2022/02/01 11:32:17;;;;;;;23.77;9.95;;;;;;;0.46;66.44;97155.25;5024231;28;20532;-70
2022/02/01 11:34:43;;;;;;;26.35;9.88;;;;;;;0.60;66.11;97163.56;5025474;28;20048;-69
2022/02/01 11:37:13;;;;;;;28.02;11.13;;;;;;;0.77;65.78;97157.84;5025660;28;20180;-70
2022/02/01 11:39:49;;;;;;;21.48;9.30;;;;;;;1.22;64.75;97153.31;5021968;28;20092;-69
2022/02/01 11:42:16;;;;;;;37.38;10.52;;;;;;;1.37;64.34;97154.31;5024125;28;20510;-70
2022/02/01 11:44:43;;;;;;;37.22;11.25;;;;;;;1.25;63.97;97150.09;5023673;28;20046;-69
2022/02/01 11:47:12;;;;;;;24.15;9.73;;;;;;;1.28;63.90;97156.78;5010344;28;20127;-70
2022/02/01 11:49:50;;;;;;;28.70;10.23;;;;;;;1.17;64.04;97174.06;5010852;28;20525;-69
2022/02/01 11:52:18;;;;;;;26.63;10.55;;;;;;;0.85;64.44;97159.97;5015010;28;20052;-70
2022/02/01 11:54:47;;;;;;;30.02;10.98;;;;;;;0.78;64.36;97154.88;5018256;28;20073;-68
2022/02/01 11:57:16;;;;;;;24.45;10.23;;;;;;;0.73;64.66;97165.69;5016411;28;20065;-68
2022/02/01 11:59:52;;;;;;;25.08;10.18;;;;;;;0.49;65.01;97168.19;5022498;28;20050;-69
2022/02/01 12:02:28;;;;;;;28.90;11.00;;;;;;;0.30;65.69;97171.41;5021538;28;20450;-70
2022/02/01 12:05:05;;;;;;;33.92;11.73;;;;;;;0.36;65.46;97181.09;5027990;28;20044;-69
2022/02/01 12:07:41;;;;;;;26.42;10.25;;;;;;;0.27;65.74;97166.59;5011334;28;20141;-68
2022/02/01 12:10:11;;;;;;;26.27;10.57;;;;;;;0.25;65.97;97172.25;5009944;28;20510;-68
2022/02/01 12:12:38;;;;;;;34.70;11.15;;;;;;;0.22;66.20;97178.16;5010752;28;20410;-68
2022/02/01 12:15:05;;;;;;;26.30;10.50;;;;;;;0.24;66.18;97189.47;5026039;28;20050;-69
2022/02/01 12:17:38;;;;;;;25.23;9.93;;;;;;;0.25;66.09;97176.81;5015576;28;20042;-69
2022/02/01 12:20:05;;;;;;;25.15;10.10;;;;;;;0.24;65.64;97196.72;5011827;28;20057;-69
2022/02/01 12:22:36;;;;;;;28.60;10.10;;;;;;;-0.03;66.63;97209.38;5011451;28;20515;-68
2022/02/01 12:25:04;;;;;;;23.88;9.90;;;;;;;0.02;66.60;97191.63;5029136;28;20136;-69
2022/02/01 12:27:33;;;;;;;;;;;;;;;0.07;66.52;97191.63;5015535;28;20433;-70
2022/02/01 12:30:00;;;;;;;25.95;10.45;;;;;;;0.12;66.03;97192.41;5023324;28;19932;-70
2022/02/01 12:32:26;;;;;;;28.95;10.40;;;;;;;0.12;66.38;97203.16;5016577;28;20072;-69
2022/02/01 12:34:53;;;;;;;28.58;10.45;;;;;;;0.10;66.40;97202.63;5022961;28;20565;-69
2022/02/01 12:37:22;;;;;;;26.17;10.15;;;;;;;0.12;66.63;97203.16;5021829;28;20494;-69
2022/02/01 12:39:59;;;;;;;28.48;10.57;;;;;;;0.29;65.93;97188.63;5025044;28;20050;-69
2022/02/01 12:42:38;;;;;;;33.13;10.57;;;;;;;0.47;65.44;97200.69;5026206;28;20149;-68
2022/02/01 12:47:58;;;;;;;28.05;9.90;;;;;;;0.44;65.07;97197.75;5022101;28;20053;-68
2022/02/01 12:50:26;;;;;;;25.10;10.48;;;;;;;0.60;65.07;97220.03;5003367;28;20418;-68
2022/02/01 12:52:56;;;;;;;27.35;9.98;;;;;;;0.44;65.08;97222.75;5030349;28;20421;-69
2022/02/01 12:55:25;;;;;;;32.53;10.65;;;;;;;0.52;65.23;97221.41;5027267;28;20054;-69
2022/02/01 12:57:52;;;;;;;33.60;10.90;;;;;;;0.44;65.16;97203.13;5009554;28;20045;-68
2022/02/01 13:00:21;;;;;;;27.90;10.53;;;;;;;0.47;65.27;97213.31;5022991;28;20136;-68
2022/02/01 13:02:47;;;;;;;32.22;10.35;;;;;;;0.44;65.46;97224.63;5023657;28;20062;-68